Time;durP1;ratioP1;P1;durP2;ratioP2;P2;SDS_P1;SDS_P2;PMS_P1;PMS_P2;Temp;Humidity;BMP_temperature;BMP_pressure;BME280_temperature;BME280_humidity;BME280_pressure;Samples;Min_cycle;Max_cycle;Signal;HPM_P1;HPM_P2
2024/02/14 00:00:33;;;;;;;1.73;1.63;;;0.00;99.90;;;;;;5022690;28;20027;-32
2024/02/14 00:02:58;;;;;;;2.30;2.10;;;-0.10;99.90;;;;;;5023042;28;20041;-33
2024/02/14 00:05:24;;;;;;;2.28;1.85;;;-0.20;99.90;;;;;;5023262;28;20116;-32
2024/02/14 00:07:50;;;;;;;3.33;2.50;;;-0.40;99.90;;;;;;5024202;28;20064;-33
2024/02/14 00:10:16;;;;;;;2.65;1.88;;;-0.40;99.90;;;;;;5022536;28;20447;-33
2024/02/14 00:12:42;;;;;;;2.00;1.90;;;-0.20;99.90;;;;;;5024684;28;20030;-36
2024/02/14 00:15:08;;;;;;;3.53;2.65;;;-0.30;99.90;;;;;;5023775;28;20022;-36
2024/02/14 00:17:35;;;;;;;2.28;1.90;;;-0.30;99.90;;;;;;5024487;28;20033;-34
2024/02/14 00:20:04;;;;;;;1.95;1.85;;;-0.20;99.90;;;;;;5018365;28;20037;-34
2024/02/14 00:22:33;;;;;;;2.58;2.38;;;-0.30;99.90;;;;;;5022179;28;20033;-41
2024/02/14 00:24:59;;;;;;;4.45;2.70;;;-0.30;99.90;;;;;;5022182;28;20025;-40
2024/02/14 00:27:27;;;;;;;2.47;2.28;;;-0.30;99.90;;;;;;5025978;28;20040;-39
2024/02/14 00:29:53;;;;;;;2.85;2.40;;;-0.20;99.90;;;;;;5022357;28;20051;-40
2024/02/14 00:32:19;;;;;;;4.45;2.30;;;-0.10;99.90;;;;;;5021717;28;20861;-40
2024/02/14 00:34:45;;;;;;;2.35;2.13;;;0.00;99.90;;;;;;5025360;28;20503;-38
2024/02/14 00:37:11;;;;;;;2.22;2.03;;;0.10;99.90;;;;;;5023395;28;20025;-40
2024/02/14 00:39:37;;;;;;;3.10;2.30;;;0.20;99.90;;;;;;5026011;28;20053;-41
2024/02/14 00:42:03;;;;;;;2.45;1.95;;;0.20;99.90;;;;;;5023714;28;20111;-39
2024/02/14 00:44:29;;;;;;;4.65;2.10;;;0.30;99.90;;;;;;5024875;28;20215;-34
2024/02/14 00:47:02;;;;;;;1.75;1.65;;;0.30;99.90;;;;;;5027237;28;20547;-36
2024/02/14 00:49:28;;;;;;;2.80;1.92;;;0.40;99.90;;;;;;5027184;28;20561;-37
2024/02/14 00:51:55;;;;;;;2.95;1.98;;;0.40;99.90;;;;;;5024202;28;20579;-39
2024/02/14 00:54:20;;;;;;;6.00;2.67;;;0.50;99.90;;;;;;5026749;28;20499;-34
2024/02/14 00:56:46;;;;;;;2.15;1.90;;;0.50;99.90;;;;;;5023974;28;20034;-35
2024/02/14 00:59:12;;;;;;;1.85;1.77;;;0.60;99.90;;;;;;5023780;28;20627;-34
2024/02/14 01:01:39;;;;;;;4.05;1.90;;;0.60;99.90;;;;;;5021242;28;20045;-35
2024/02/14 01:04:05;;;;;;;3.60;1.95;;;0.50;99.90;;;;;;5024894;28;20506;-35
2024/02/14 01:06:31;;;;;;;2.40;1.85;;;0.50;99.90;;;;;;5021587;28;20013;-34
2024/02/14 01:08:57;;;;;;;2.78;2.42;;;0.40;99.90;;;;;;5025814;28;20025;-36
2024/02/14 01:11:23;;;;;;;2.42;2.22;;;0.30;99.90;;;;;;5023899;28;20083;-33
2024/02/14 01:13:48;;;;;;;2.45;2.08;;;0.40;99.90;;;;;;5023802;28;22335;-33
2024/02/14 01:16:14;;;;;;;2.33;2.13;;;0.40;99.90;;;;;;5022645;28;20025;-35
2024/02/14 01:18:40;;;;;;;3.30;2.20;;;0.40;99.90;;;;;;5005811;28;21437;-34
2024/02/14 01:21:07;;;;;;;5.57;2.67;;;0.50;99.90;;;;;;5025729;28;20043;-34
2024/02/14 01:23:32;;;;;;;2.40;2.13;;;0.50;99.90;;;;;;5024197;28;20076;-37
2024/02/14 01:25:58;;;;;;;4.00;2.30;;;0.50;99.90;;;;;;5021338;28;20065;-37
2024/02/14 01:28:25;;;;;;;2.58;2.35;;;0.50;99.90;;;;;;5021581;28;20115;-33
2024/02/14 01:30:51;;;;;;;2.05;1.88;;;0.50;99.90;;;;;;5023230;28;20065;-37
2024/02/14 01:33:17;;;;;;;1.38;1.35;;;0.50;99.90;;;;;;5025043;28;20569;-40
2024/02/14 01:35:43;;;;;;;1.88;1.75;;;0.50;99.90;;;;;;5024699;28;20683;-38
2024/02/14 01:38:08;;;;;;;2.50;1.83;;;0.50;99.90;;;;;;5023791;28;20056;-39
2024/02/14 01:40:34;;;;;;;1.65;1.45;;;0.50;99.90;;;;;;5022457;28;20109;-41
2024/02/14 01:43:00;;;;;;;2.55;2.00;;;0.50;99.90;;;;;;5020610;28;20414;-41
2024/02/14 01:45:27;;;;;;;3.20;1.92;;;0.50;99.90;;;;;;5024550;28;20053;-40
2024/02/14 01:47:55;;;;;;;1.17;1.17;;;0.50;99.90;;;;;;5023586;28;20127;-40
2024/02/14 01:50:28;;;;;;;1.85;1.20;;;0.50;99.90;;;;;;5022641;28;20483;-41
2024/02/14 01:52:56;;;;;;;1.17;1.08;;;0.50;99.90;;;;;;5023462;28;20036;-42
2024/02/14 01:55:21;;;;;;;2.55;2.35;;;0.20;99.90;;;;;;5020980;28;20386;-42
2024/02/14 01:57:48;;;;;;;1.25;1.25;;;0.20;99.90;;;;;;5023543;28;20092;-42
2024/02/14 02:00:17;;;;;;;2.97;1.67;;;0.20;99.90;;;;;;5023027;28;20025;-41
2024/02/14 02:02:44;;;;;;;3.38;2.05;;;0.10;99.90;;;;;;5021533;28;20402;-41
2024/02/14 02:05:10;;;;;;;2.15;1.80;;;0.10;99.90;;;;;;5021915;28;21757;-41
2024/02/14 02:07:39;;;;;;;3.53;2.55;;;0.10;99.90;;;;;;5023251;28;20471;-40
2024/02/14 02:10:06;;;;;;;2.00;1.83;;;0.20;99.90;;;;;;5021965;28;20447;-40
2024/02/14 02:12:32;;;;;;;2.53;2.05;;;0.20;99.90;;;;;;5005056;28;20026;-41
2024/02/14 02:14:58;;;;;;;2.40;2.20;;;0.30;99.90;;;;;;5022520;28;20029;-42
2024/02/14 02:17:25;;;;;;;12.27;5.43;;;0.30;99.90;;;;;;5025400;28;20399;-42
2024/02/14 02:19:54;;;;;;;28.67;11.45;;;0.30;99.90;;;;;;5022361;28;20517;-41
2024/02/14 02:22:20;;;;;;;11.85;7.88;;;0.30;99.90;;;;;;5021753;28;20124;-41
2024/02/14 02:24:47;;;;;;;9.05;5.07;;;0.30;99.90;;;;;;5022874;28;20527;-41
2024/02/14 02:27:15;;;;;;;4.80;2.97;;;0.40;99.90;;;;;;5021130;28;20025;-42
2024/02/14 02:29:41;;;;;;;3.08;2.25;;;0.30;99.90;;;;;;5022353;28;20571;-41
2024/02/14 02:32:09;;;;;;;3.20;2.20;;;0.40;99.90;;;;;;5021698;28;20038;-42
2024/02/14 02:34:38;;;;;;;3.00;2.42;;;0.40;99.90;;;;;;5022564;28;20098;-38
2024/02/14 02:37:07;;;;;;;4.57;1.70;;;0.50;99.90;;;;;;5019812;28;20037;-37
2024/02/14 02:39:35;;;;;;;3.85;1.85;;;0.50;99.90;;;;;;5024775;28;20033;-42
2024/02/14 02:42:01;;;;;;;1.40;1.30;;;0.50;99.90;;;;;;5021850;28;20032;-34
2024/02/14 02:44:28;;;;;;;1.45;1.35;;;0.50;99.90;;;;;;5020895;28;20506;-34
2024/02/14 02:46:53;;;;;;;1.92;1.83;;;0.50;99.90;;;;;;5023256;28;20483;-34
2024/02/14 02:49:19;;;;;;;2.30;2.08;;;0.00;99.90;;;;;;5021547;28;20029;-37
2024/02/14 02:51:46;;;;;;;2.40;1.85;;;-0.20;99.90;;;;;;5022383;28;20084;-34
2024/02/14 02:54:13;;;;;;;3.05;2.03;;;-0.10;99.90;;;;;;5023654;28;20522;-38
2024/02/14 02:56:40;;;;;;;3.00;2.03;;;-0.10;99.90;;;;;;5023275;28;20407;-35
2024/02/14 02:59:07;;;;;;;2.13;1.98;;;0.00;99.90;;;;;;5022765;28;20104;-35
2024/02/14 03:01:36;;;;;;;3.40;2.10;;;0.10;99.90;;;;;;5013256;28;20632;-33
2024/02/14 03:04:03;;;;;;;2.30;2.10;;;0.10;99.90;;;;;;5002152;28;20506;-33
2024/02/14 03:06:29;;;;;;;3.42;2.00;;;0.20;99.90;;;;;;5004562;28;20109;-33
2024/02/14 03:08:56;;;;;;;4.85;2.42;;;0.20;99.90;;;;;;5004466;28;20025;-36
2024/02/14 03:11:22;;;;;;;3.85;2.10;;;0.20;99.90;;;;;;5006426;28;20034;-38
2024/02/14 03:13:51;;;;;;;4.63;2.65;;;0.30;99.90;;;;;;5002635;28;20042;-32
2024/02/14 03:16:17;;;;;;;;;;;0.30;99.90;;;;;;5003427;28;20483;-32
2024/02/14 03:18:43;;;;;;;3.63;2.40;;;0.30;99.90;;;;;;5002034;28;19921;-33
2024/02/14 03:21:11;;;;;;;3.05;2.17;;;0.40;99.90;;;;;;5005769;28;20042;-33
2024/02/14 03:23:37;;;;;;;3.10;2.65;;;0.40;99.90;;;;;;5003680;28;20034;-33
2024/02/14 03:26:07;;;;;;;1.38;1.30;;;0.40;99.90;;;;;;5003580;28;20108;-32
2024/02/14 03:28:33;;;;;;;5.43;2.40;;;0.30;99.90;;;;;;5000788;28;20041;-37
2024/02/14 03:30:59;;;;;;;2.38;2.05;;;0.20;99.90;;;;;;5007818;28;20429;-32
2024/02/14 03:33:25;;;;;;;2.10;1.50;;;0.20;99.90;;;;;;5025273;28;20037;-32
2024/02/14 03:35:51;;;;;;;4.35;2.10;;;0.10;99.90;;;;;;5024223;28;20458;-36
2024/02/14 03:38:31;;;;;;;2.00;1.73;;;0.10;99.90;;;;;;5021221;28;20026;-33
2024/02/14 03:40:57;;;;;;;1.95;1.85;;;0.20;99.90;;;;;;5019954;28;20032;-33
2024/02/14 03:43:23;;;;;;;1.63;1.52;;;0.20;99.90;;;;;;5020334;28;20030;-32
2024/02/14 03:45:51;;;;;;;2.15;1.73;;;0.20;99.90;;;;;;5024219;28;20584;-37
2024/02/14 03:48:17;;;;;;;2.40;2.30;;;0.20;99.90;;;;;;5006925;28;20491;-38
2024/02/14 03:50:43;;;;;;;2.33;2.10;;;0.20;99.90;;;;;;5021573;28;20018;-41
2024/02/14 03:53:10;;;;;;;1.40;1.40;;;0.20;99.90;;;;;;5035507;28;20099;-38
2024/02/14 03:55:37;;;;;;;2.78;1.58;;;0.10;99.90;;;;;;5019636;28;20029;-41
2024/02/14 03:58:05;;;;;;;2.08;1.92;;;0.10;99.90;;;;;;5018391;28;20493;-41
2024/02/14 04:00:31;;;;;;;2.38;2.17;;;0.20;99.90;;;;;;5020335;28;20037;-39
2024/02/14 04:02:59;;;;;;;2.67;2.10;;;0.30;99.90;;;;;;5021119;28;20083;-41
2024/02/14 04:05:27;;;;;;;2.08;1.88;;;0.40;99.90;;;;;;5023120;28;20041;-39
2024/02/14 04:07:54;;;;;;;;;;;0.40;99.90;;;;;;5019463;28;20043;-40
2024/02/14 04:10:20;;;;;;;2.38;2.13;;;0.40;99.90;;;;;;5018534;28;19921;-38
2024/02/14 04:12:47;;;;;;;10.00;2.63;;;0.50;99.90;;;;;;5014881;28;20056;-40
2024/02/14 04:15:13;;;;;;;1.63;1.52;;;0.50;99.90;;;;;;5021947;28;20033;-41
2024/02/14 04:17:39;;;;;;;2.22;2.03;;;0.60;99.90;;;;;;5018051;28;20037;-40
2024/02/14 04:20:06;;;;;;;2.25;1.48;;;0.70;99.90;;;;;;5018811;28;20045;-39
2024/02/14 04:22:32;;;;;;;2.60;2.40;;;0.70;99.90;;;;;;5019682;28;20495;-40
2024/02/14 04:24:58;;;;;;;2.25;1.60;;;0.60;99.90;;;;;;5014205;28;20037;-37
2024/02/14 04:27:24;;;;;;;1.38;1.35;;;0.60;99.90;;;;;;5015850;28;20063;-40
2024/02/14 04:29:50;;;;;;;2.17;1.77;;;0.60;99.90;;;;;;5019106;28;20491;-40
2024/02/14 04:32:17;;;;;;;2.63;2.42;;;0.60;99.90;;;;;;5020632;28;20025;-36
2024/02/14 04:34:43;;;;;;;1.58;1.48;;;0.70;99.90;;;;;;5019054;28;20069;-40
2024/02/14 04:37:13;;;;;;;2.42;1.77;;;0.70;99.90;;;;;;5023050;28;20105;-38
2024/02/14 04:39:40;;;;;;;2.78;2.30;;;0.70;99.90;;;;;;5020585;28;20117;-40
2024/02/14 04:42:05;;;;;;;2.08;1.98;;;0.70;99.90;;;;;;5019415;28;20070;-39
2024/02/14 04:44:33;;;;;;;2.05;1.88;;;0.70;99.90;;;;;;5019306;28;20663;-39
2024/02/14 04:46:58;;;;;;;3.03;2.58;;;0.80;99.90;;;;;;5014634;28;20036;-41
2024/02/14 04:49:25;;;;;;;4.78;2.85;;;0.80;99.90;;;;;;5022451;28;20037;-39
2024/02/14 04:51:54;;;;;;;5.95;2.58;;;0.90;99.90;;;;;;5022625;28;20034;-35
2024/02/14 04:54:20;;;;;;;2.05;1.88;;;1.00;99.90;;;;;;5020382;28;20056;-40
2024/02/14 04:56:46;;;;;;;1.85;1.75;;;1.00;99.90;;;;;;5017776;28;20143;-40
2024/02/14 04:59:12;;;;;;;2.92;2.40;;;1.00;99.90;;;;;;5022637;28;20319;-39
2024/02/14 05:01:39;;;;;;;4.05;2.55;;;1.10;99.90;;;;;;5025631;28;20041;-34
2024/02/14 05:04:08;;;;;;;7.07;2.65;;;1.10;99.90;;;;;;5026639;28;20033;-34
2024/02/14 05:06:34;;;;;;;1.98;1.65;;;1.10;99.90;;;;;;5024500;28;20494;-33
2024/02/14 05:09:00;;;;;;;1.63;1.52;;;1.00;99.90;;;;;;5022898;28;20042;-33
2024/02/14 05:11:26;;;;;;;2.22;2.13;;;1.00;99.90;;;;;;5017754;28;20087;-34
2024/02/14 05:13:52;;;;;;;2.63;2.42;;;1.00;99.90;;;;;;5020806;28;20025;-37
2024/02/14 05:16:20;;;;;;;2.88;1.88;;;1.10;99.90;;;;;;5034566;28;20022;-34
2024/02/14 05:18:47;;;;;;;4.35;2.03;;;1.10;99.90;;;;;;5022958;28;20975;-32
2024/02/14 05:21:13;;;;;;;3.22;2.00;;;1.20;99.90;;;;;;5018046;28;20104;-35
2024/02/14 05:23:39;;;;;;;2.75;2.17;;;1.20;99.90;;;;;;5022338;28;20033;-34
2024/02/14 05:26:05;;;;;;;2.55;2.15;;;1.30;99.90;;;;;;5021581;28;20037;-37
2024/02/14 05:28:31;;;;;;;3.10;2.20;;;1.30;99.90;;;;;;5023247;28;20076;-38
2024/02/14 05:30:59;;;;;;;3.10;2.83;;;1.40;99.90;;;;;;5020729;28;20107;-33
2024/02/14 05:33:25;;;;;;;2.42;2.22;;;1.40;99.90;;;;;;5023696;28;20059;-35
2024/02/14 05:35:52;;;;;;;2.35;2.15;;;1.50;99.90;;;;;;5024944;28;20053;-39
2024/02/14 05:38:21;;;;;;;2.85;2.03;;;1.50;99.90;;;;;;5028875;28;20242;-35
2024/02/14 05:40:48;;;;;;;3.50;3.20;;;1.50;99.90;;;;;;5022158;28;20049;-36
2024/02/14 05:43:14;;;;;;;3.42;2.78;;;1.50;99.90;;;;;;5002844;28;20034;-34
2024/02/14 05:45:40;;;;;;;2.90;2.33;;;1.50;99.90;;;;;;5022547;28;20107;-36
2024/02/14 05:48:07;;;;;;;4.32;3.15;;;1.50;99.90;;;;;;5020264;28;20130;-36
2024/02/14 05:50:34;;;;;;;2.58;2.38;;;1.50;99.90;;;;;;5020867;28;20474;-34
2024/02/14 05:53:00;;;;;;;4.55;2.38;;;1.60;99.90;;;;;;5022688;28;20036;-33
2024/02/14 05:55:26;;;;;;;3.72;2.83;;;1.70;99.90;;;;;;5023275;28;20049;-34
2024/02/14 05:57:55;;;;;;;8.80;3.72;;;1.80;99.90;;;;;;5019658;28;20025;-38
2024/02/14 06:00:21;;;;;;;1.77;1.67;;;1.90;99.90;;;;;;5023416;28;20097;-34
2024/02/14 06:02:48;;;;;;;2.38;1.63;;;1.90;99.90;;;;;;5021122;28;20531;-39
2024/02/14 06:05:14;;;;;;;5.70;2.58;;;1.90;99.90;;;;;;5019335;28;20120;-33
2024/02/14 06:07:41;;;;;;;2.55;2.35;;;1.90;99.90;;;;;;5018354;28;20086;-32
2024/02/14 06:10:08;;;;;;;3.05;2.78;;;1.90;99.90;;;;;;5002894;28;20033;-36
2024/02/14 06:12:35;;;;;;;5.25;2.60;;;2.00;99.90;;;;;;5025358;28;20028;-40
2024/02/14 06:15:01;;;;;;;2.50;2.20;;;2.00;99.90;;;;;;5014348;28;20026;-42
2024/02/14 06:17:27;;;;;;;1.85;1.75;;;2.20;99.90;;;;;;5015841;28;20097;-42
2024/02/14 06:19:54;;;;;;;2.13;1.90;;;2.20;99.90;;;;;;5013462;28;20040;-37
2024/02/14 06:22:20;;;;;;;5.68;2.90;;;2.10;99.90;;;;;;5019690;28;20497;-41
2024/02/14 06:24:48;;;;;;;2.45;2.25;;;2.10;99.90;;;;;;5015919;28;20075;-39
2024/02/14 06:27:14;;;;;;;2.58;2.08;;;2.10;99.90;;;;;;5016905;28;20088;-39
2024/02/14 06:29:44;;;;;;;3.03;2.50;;;2.10;99.90;;;;;;5017921;28;20351;-39
2024/02/14 06:32:14;;;;;;;1.88;1.77;;;2.10;99.90;;;;;;5016514;28;20132;-33
2024/02/14 06:34:40;;;;;;;2.90;2.45;;;2.10;99.90;;;;;;5017250;28;20518;-36
2024/02/14 06:37:05;;;;;;;6.00;3.42;;;2.10;99.90;;;;;;5020632;28;20033;-37
2024/02/14 06:39:31;;;;;;;5.28;2.75;;;2.20;99.90;;;;;;5018370;28;20127;-36
2024/02/14 06:41:57;;;;;;;2.13;1.83;;;2.20;99.90;;;;;;5018890;28;20100;-33
2024/02/14 06:44:23;;;;;;;4.15;2.10;;;2.30;99.90;;;;;;5021112;28;20033;-34
2024/02/14 06:46:49;;;;;;;5.07;3.40;;;2.30;99.90;;;;;;5018247;28;20033;-35
2024/02/14 06:49:16;;;;;;;7.80;3.47;;;2.40;99.90;;;;;;5015892;28;20030;-35
2024/02/14 06:51:42;;;;;;;3.22;2.85;;;2.50;99.90;;;;;;5019045;28;20064;-36
2024/02/14 06:54:08;;;;;;;3.17;2.88;;;2.60;99.90;;;;;;5017135;28;20151;-36
2024/02/14 06:56:34;;;;;;;5.25;3.33;;;2.70;99.90;;;;;;5021278;28;20166;-34
2024/02/14 06:59:00;;;;;;;4.70;3.35;;;2.80;99.90;;;;;;5018697;28;20997;-35
2024/02/14 07:01:29;;;;;;;4.47;3.40;;;2.90;99.90;;;;;;5018738;28;20041;-33
2024/02/14 07:03:55;;;;;;;4.10;2.50;;;3.00;99.90;;;;;;5018707;28;20033;-39
2024/02/14 07:06:22;;;;;;;6.43;2.83;;;3.10;99.90;;;;;;5018454;28;20021;-35
2024/02/14 07:08:48;;;;;;;4.47;2.83;;;3.10;99.90;;;;;;5018849;28;20438;-33
2024/02/14 07:11:15;;;;;;;4.15;2.67;;;3.20;99.90;;;;;;5018112;28;20048;-33
2024/02/14 07:13:41;;;;;;;3.17;2.47;;;3.30;99.90;;;;;;5018921;28;20025;-37
2024/02/14 07:16:07;;;;;;;3.50;2.67;;;3.30;99.90;;;;;;5015990;28;20033;-35
2024/02/14 07:18:34;;;;;;;5.38;3.00;;;3.40;99.90;;;;;;5018484;28;20079;-34
2024/02/14 07:21:01;;;;;;;4.05;2.20;;;3.50;99.90;;;;;;5019265;28;20099;-33
2024/02/14 07:23:27;;;;;;;4.25;3.40;;;3.50;99.90;;;;;;5021856;28;20041;-35
2024/02/14 07:25:53;;;;;;;4.63;2.97;;;3.60;99.90;;;;;;5018831;28;20057;-39
2024/02/14 07:28:19;;;;;;;2.60;2.40;;;3.70;99.90;;;;;;5018436;28;20048;-33
2024/02/14 07:30:45;;;;;;;6.68;2.70;;;3.70;99.90;;;;;;5018998;28;20494;-36
2024/02/14 07:33:10;;;;;;;3.92;2.63;;;3.80;99.90;;;;;;5020130;28;20116;-33
2024/02/14 07:35:37;;;;;;;2.78;2.53;;;4.00;99.90;;;;;;5019984;28;20048;-34
2024/02/14 07:38:03;;;;;;;2.63;2.30;;;4.10;99.90;;;;;;5022606;28;20095;-33
2024/02/14 07:40:30;;;;;;;3.22;2.75;;;4.20;99.90;;;;;;5020800;28;20318;-39
2024/02/14 07:43:00;;;;;;;2.60;2.40;;;4.20;99.90;;;;;;5022564;28;20037;-40
2024/02/14 07:45:26;;;;;;;4.65;4.30;;;4.20;99.90;;;;;;5020907;28;20033;-39
2024/02/14 07:47:52;;;;;;;5.10;2.72;;;4.20;99.90;;;;;;5021499;28;20690;-39
2024/02/14 07:50:18;;;;;;;3.22;2.92;;;4.30;99.90;;;;;;5020322;28;20032;-41
2024/02/14 07:52:44;;;;;;;2.70;2.33;;;4.40;99.90;;;;;;5022693;28;20017;-41
2024/02/14 07:55:13;;;;;;;2.80;2.47;;;4.50;99.90;;;;;;5021015;28;20035;-39
2024/02/14 07:57:40;;;;;;;2.90;2.50;;;4.60;99.90;;;;;;5022932;28;20036;-40
2024/02/14 08:00:10;;;;;;;3.90;2.53;;;4.70;99.90;;;;;;5023951;28;20049;-40
2024/02/14 08:02:37;;;;;;;2.75;2.45;;;4.70;99.90;;;;;;5021301;28;20086;-39
2024/02/14 08:05:04;;;;;;;4.78;2.15;;;4.90;99.90;;;;;;5023783;28;20044;-40
2024/02/14 08:07:30;;;;;;;5.70;2.13;;;4.90;99.90;;;;;;5025060;28;20029;-41
2024/02/14 08:09:56;;;;;;;2.17;1.38;;;5.00;99.90;;;;;;5023294;28;20032;-40
2024/02/14 08:12:24;;;;;;;3.15;1.80;;;5.20;99.90;;;;;;5026276;28;20029;-42
2024/02/14 08:14:51;;;;;;;1.83;1.70;;;5.30;99.90;;;;;;5024978;28;20026;-42
2024/02/14 08:17:17;;;;;;;1.90;1.80;;;5.50;99.90;;;;;;5025114;28;20079;-38
2024/02/14 08:19:43;;;;;;;3.50;1.85;;;5.80;99.90;;;;;;5028616;28;20026;-41
2024/02/14 08:22:09;;;;;;;1.92;1.27;;;6.00;99.90;;;;;;5027050;28;20048;-41
2024/02/14 08:24:34;;;;;;;2.05;1.35;;;6.20;99.90;;;;;;5024340;28;20108;-42
2024/02/14 08:27:00;;;;;;;1.88;1.52;;;6.30;99.90;;;;;;5008756;28;20088;-41
2024/02/14 08:29:26;;;;;;;1.58;1.20;;;6.30;99.90;;;;;;5025303;28;20025;-42
2024/02/14 08:31:53;;;;;;;0.90;0.90;;;6.40;99.90;;;;;;5015907;28;20041;-38
2024/02/14 08:34:18;;;;;;;1.50;1.40;;;6.50;99.90;;;;;;5005834;28;20498;-38
2024/02/14 08:36:44;;;;;;;5.72;1.80;;;6.50;99.90;;;;;;5009251;28;20022;-34
2024/02/14 08:39:11;;;;;;;2.42;1.17;;;6.50;99.90;;;;;;5007054;28;20463;-36
2024/02/14 08:41:38;;;;;;;1.75;1.60;;;6.40;99.90;;;;;;5005878;28;20030;-35
2024/02/14 08:44:04;;;;;;;1.10;1.10;;;6.50;99.90;;;;;;5004962;28;20650;-35
2024/02/14 08:46:31;;;;;;;2.38;1.70;;;6.50;99.90;;;;;;5000956;28;20140;-36
2024/02/14 08:48:57;;;;;;;1.23;1.13;;;6.50;99.90;;;;;;5004195;28;20033;-35
2024/02/14 08:51:24;;;;;;;1.60;1.27;;;6.50;99.90;;;;;;5005990;28;20070;-34
2024/02/14 08:53:54;;;;;;;1.40;1.30;;;6.50;99.90;;;;;;5009464;28;20378;-35
2024/02/14 08:56:21;;;;;;;1.17;1.13;;;6.60;99.90;;;;;;5006055;28;20026;-33
2024/02/14 08:58:48;;;;;;;2.88;1.48;;;6.80;99.90;;;;;;5005810;28;20034;-33
2024/02/14 09:01:14;;;;;;;1.30;1.20;;;6.90;99.90;;;;;;5010214;28;20033;-33
2024/02/14 09:03:43;;;;;;;0.85;0.85;;;6.90;99.90;;;;;;5025527;28;20525;-34
2024/02/14 09:06:09;;;;;;;3.45;1.20;;;7.00;99.90;;;;;;5030128;28;20029;-33
2024/02/14 09:08:35;;;;;;;0.85;0.75;;;7.10;99.90;;;;;;5028973;28;20465;-36
2024/02/14 09:11:00;;;;;;;3.28;1.40;;;7.10;99.90;;;;;;5026249;28;20033;-32
2024/02/14 09:13:27;;;;;;;1.60;1.42;;;7.20;99.90;;;;;;5029855;28;20029;-33
2024/02/14 09:15:54;;;;;;;2.10;1.60;;;7.20;99.90;;;;;;5026441;28;22162;-38
2024/02/14 09:18:19;;;;;;;1.35;1.25;;;7.20;99.90;;;;;;5026907;28;20025;-34
2024/02/14 09:20:46;;;;;;;0.93;0.93;;;7.30;99.90;;;;;;5025289;28;20040;-32
2024/02/14 09:23:14;;;;;;;1.42;0.85;;;7.50;99.90;;;;;;5027441;28;20034;-37
2024/02/14 09:25:40;;;;;;;1.63;0.90;;;7.60;99.90;;;;;;5025154;28;20032;-36
2024/02/14 09:28:07;;;;;;;1.15;1.05;;;7.70;99.90;;;;;;5026508;28;20050;-32
2024/02/14 09:30:33;;;;;;;1.30;1.20;;;7.80;99.90;;;;;;5024002;28;20037;-39
2024/02/14 09:32:59;;;;;;;1.40;1.30;;;7.80;99.90;;;;;;5024014;28;20026;-33
2024/02/14 09:35:25;;;;;;;1.30;1.30;;;8.00;99.90;;;;;;5025193;28;20106;-32
2024/02/14 09:37:51;;;;;;;1.83;1.52;;;8.00;99.90;;;;;;5024659;28;20402;-36
2024/02/14 09:40:17;;;;;;;2.35;1.40;;;8.00;99.90;;;;;;5023675;28;20029;-39
2024/02/14 09:42:57;;;;;;;1.80;1.30;;;8.10;99.90;;;;;;5025598;28;20036;-38
2024/02/14 09:45:27;;;;;;;0.73;0.73;;;8.40;99.90;;;;;;5028514;28;20112;-40
2024/02/14 09:47:57;;;;;;;0.82;0.82;;;8.60;99.90;;;;;;5026043;28;20045;-34
2024/02/14 09:50:24;;;;;;;1.48;1.17;;;8.60;99.90;;;;;;5025679;28;20594;-40
2024/02/14 09:52:51;;;;;;;2.85;1.38;;;8.60;99.90;;;;;;5026142;28;20363;-38
2024/02/14 09:55:17;;;;;;;1.42;0.93;;;8.60;99.90;;;;;;5025494;28;20059;-42
2024/02/14 09:57:44;;;;;;;1.50;1.33;;;8.80;99.90;;;;;;5026240;28;20021;-40
2024/02/14 10:00:12;;;;;;;0.90;0.90;;;8.90;99.90;;;;;;5026070;28;20499;-40
2024/02/14 10:02:38;;;;;;;3.60;1.30;;;8.90;99.90;;;;;;5025146;28;22256;-40
2024/02/14 10:05:04;;;;;;;2.75;1.27;;;9.00;99.90;;;;;;5025547;28;20040;-40
2024/02/14 10:07:30;;;;;;;1.90;1.38;;;9.00;99.90;;;;;;5026128;28;20106;-39
2024/02/14 10:10:06;;;;;;;1.45;1.10;;;9.00;99.90;;;;;;5024963;28;20510;-38
2024/02/14 10:12:32;;;;;;;1.70;1.20;;;8.90;99.90;;;;;;5024943;28;20025;-39
2024/02/14 10:14:58;;;;;;;2.25;1.50;;;8.90;99.90;;;;;;5024350;28;20033;-40
2024/02/14 10:17:24;;;;;;;1.02;1.00;;;9.00;99.90;;;;;;5026016;28;20098;-40
2024/02/14 10:20:04;;;;;;;0.98;0.95;;;9.30;99.90;;;;;;5024698;28;20025;-40
2024/02/14 10:22:38;;;;;;;0.82;0.82;;;9.30;99.90;;;;;;5026740;28;20487;-40
2024/02/14 10:25:11;;;;;;;1.67;1.30;;;9.40;99.90;;;;;;5026093;28;20090;-36
2024/02/14 10:27:40;;;;;;;1.08;1.08;;;9.40;99.90;;;;;;5021829;28;20041;-38
2024/02/14 10:30:09;;;;;;;0.68;0.68;;;9.30;99.90;;;;;;5023534;28;20037;-37
2024/02/14 10:32:47;;;;;;;3.65;1.10;;;9.50;99.90;;;;;;5023767;28;20518;-40
2024/02/14 10:35:14;;;;;;;0.93;0.93;;;9.50;99.90;;;;;;5024596;28;20087;-40
2024/02/14 10:37:40;;;;;;;0.70;0.70;;;9.60;99.90;;;;;;5024855;28;20422;-40
2024/02/14 10:40:08;;;;;;;1.55;1.15;;;9.60;99.90;;;;;;5024216;28;20104;-38
2024/02/14 10:42:35;;;;;;;1.63;1.30;;;9.60;99.90;;;;;;5026369;28;20068;-38
2024/02/14 10:45:02;;;;;;;2.17;1.00;;;9.50;99.90;;;;;;5023816;28;20042;-41
2024/02/14 10:47:36;;;;;;;1.05;0.80;;;9.60;99.90;;;;;;5026001;28;20138;-39
2024/02/14 10:50:06;;;;;;;1.17;1.10;;;9.60;99.90;;;;;;5023491;28;20387;-39
2024/02/14 10:52:35;;;;;;;1.30;1.10;;;9.60;99.90;;;;;;5038718;28;20029;-35
2024/02/14 10:55:04;;;;;;;2.22;1.08;;;9.60;99.90;;;;;;5024377;28;20030;-33
2024/02/14 10:57:32;;;;;;;1.65;1.02;;;9.70;99.90;;;;;;5027358;28;20152;-32
2024/02/14 11:00:02;;;;;;;1.00;1.00;;;9.70;99.90;;;;;;5022512;28;20040;-33
2024/02/14 11:02:30;;;;;;;0.70;0.70;;;9.90;99.90;;;;;;5021717;28;20037;-32
2024/02/14 11:04:57;;;;;;;1.30;0.70;;;9.90;99.90;;;;;;5022176;28;20056;-33
2024/02/14 11:07:23;;;;;;;1.13;1.02;;;10.00;99.90;;;;;;5021974;28;20086;-33
2024/02/14 11:10:00;;;;;;;1.30;1.20;;;10.00;99.90;;;;;;5025459;28;20025;-33
2024/02/14 11:12:26;;;;;;;0.88;0.88;;;10.20;99.90;;;;;;5022238;28;20061;-33
2024/02/14 11:14:57;;;;;;;1.20;1.10;;;10.20;99.90;;;;;;5023837;28;20056;-34
2024/02/14 11:17:26;;;;;;;0.70;0.70;;;10.30;99.90;;;;;;5021406;28;20104;-36
2024/02/14 11:19:52;;;;;;;1.13;1.02;;;10.50;99.90;;;;;;5023812;28;20402;-36
2024/02/14 11:22:19;;;;;;;3.85;1.05;;;10.70;99.90;;;;;;5023426;28;20034;-33
2024/02/14 11:24:49;;;;;;;1.20;1.10;;;10.80;97.40;;;;;;5024229;28;20030;-35
2024/02/14 11:27:20;;;;;;;1.95;1.30;;;10.90;98.00;;;;;;5023150;28;20578;-34
2024/02/14 11:29:52;;;;;;;0.88;0.88;;;10.90;97.80;;;;;;5025065;28;20042;-34
2024/02/14 11:32:18;;;;;;;0.60;0.60;;;11.10;95.70;;;;;;5022250;28;20038;-34
2024/02/14 11:34:55;;;;;;;1.08;0.98;;;11.00;95.60;;;;;;5023254;28;20045;-33
2024/02/14 11:37:20;;;;;;;0.70;0.70;;;11.30;98.00;;;;;;5024343;28;20574;-33
2024/02/14 11:39:46;;;;;;;1.35;0.90;;;11.40;96.70;;;;;;5023305;28;20014;-36
2024/02/14 11:42:13;;;;;;;1.42;1.20;;;11.30;96.00;;;;;;5024140;28;20068;-32
2024/02/14 11:44:42;;;;;;;0.93;0.90;;;11.40;99.80;;;;;;5022878;28;20032;-33
2024/02/14 11:47:09;;;;;;;0.75;0.75;;;11.40;98.50;;;;;;5022892;28;20044;-33
2024/02/14 11:49:36;;;;;;;0.82;0.82;;;11.40;99.90;;;;;;5019644;28;20140;-37
2024/02/14 11:52:04;;;;;;;1.13;1.00;;;11.50;99.90;;;;;;5021754;28;20360;-34
2024/02/14 11:54:30;;;;;;;0.67;0.67;;;11.40;97.10;;;;;;5020783;28;20026;-32
2024/02/14 11:56:56;;;;;;;0.95;0.95;;;11.40;98.60;;;;;;5019610;28;20808;-37
2024/02/14 11:59:23;;;;;;;0.80;0.80;;;11.30;99.90;;;;;;5024226;28;20033;-34
2024/02/14 12:01:51;;;;;;;0.70;0.70;;;11.40;99.90;;;;;;5023847;28;20056;-35
2024/02/14 12:04:18;;;;;;;0.70;0.70;;;11.50;99.90;;;;;;5024103;28;20040;-40
2024/02/14 12:06:44;;;;;;;0.73;0.73;;;11.60;99.90;;;;;;5023866;28;20645;-40
2024/02/14 12:09:12;;;;;;;0.73;0.73;;;11.60;99.90;;;;;;5018380;28;20052;-40
2024/02/14 12:11:42;;;;;;;0.50;0.50;;;11.80;99.90;;;;;;5003893;28;20056;-38
2024/02/14 12:14:11;;;;;;;0.82;0.82;;;11.90;99.90;;;;;;5022076;28;20283;-39
2024/02/14 12:16:39;;;;;;;1.10;0.85;;;12.00;99.90;;;;;;5023105;28;20368;-34
2024/02/14 12:19:15;;;;;;;0.90;0.90;;;12.00;99.90;;;;;;5021045;28;20099;-39
2024/02/14 12:21:42;;;;;;;1.95;1.20;;;11.90;99.90;;;;;;4995639;28;20029;-41
2024/02/14 12:24:15;;;;;;;0.77;0.77;;;12.00;99.90;;;;;;5021318;28;20113;-39
2024/02/14 12:26:42;;;;;;;0.60;0.60;;;12.10;99.90;;;;;;5021507;28;20033;-42
2024/02/14 12:29:11;;;;;;;0.40;0.40;;;12.20;99.90;;;;;;5022570;28;20033;-38
2024/02/14 12:31:36;;;;;;;1.08;1.05;;;12.10;99.90;;;;;;5022431;28;20037;-36
2024/02/14 12:34:04;;;;;;;0.60;0.60;;;12.10;99.90;;;;;;5022688;28;20029;-42
2024/02/14 12:36:32;;;;;;;0.63;0.63;;;12.30;99.90;;;;;;5023042;28;20057;-41
2024/02/14 12:39:02;;;;;;;1.67;0.70;;;12.20;99.90;;;;;;5022160;28;20041;-41
2024/02/14 12:41:31;;;;;;;0.57;0.57;;;12.30;99.90;;;;;;5021180;28;20017;-42
2024/02/14 12:43:59;;;;;;;2.60;0.73;;;12.50;99.90;;;;;;5005870;28;20021;-42
2024/02/14 12:46:24;;;;;;;0.68;0.68;;;12.60;99.90;;;;;;5020799;28;20033;-37
2024/02/14 12:48:50;;;;;;;0.98;0.70;;;12.40;99.90;;;;;;5024249;28;20040;-39
2024/02/14 12:51:16;;;;;;;0.57;0.40;;;12.20;99.90;;;;;;5023059;28;20125;-42
2024/02/14 12:53:42;;;;;;;0.50;0.50;;;12.10;99.90;;;;;;5025337;28;20422;-41